sensor_id;sensor_type;location;lat;lon;timestamp;temperature;humidity
7290;DHT22;63176;52.678;13.250;2022-08-30T00:00:43;14.30;99.90
7290;DHT22;63176;52.678;13.250;2022-08-30T00:03:38;14.30;99.90
7290;DHT22;63176;52.678;13.250;2022-08-30T00:06:10;14.20;99.90
7290;DHT22;63176;52.678;13.250;2022-08-30T00:08:37;14.20;99.90
7290;DHT22;63176;52.678;13.250;2022-08-30T00:11:05;14.10;99.90
7290;DHT22;63176;52.678;13.250;2022-08-30T00:13:31;14.10;99.90
7290;DHT22;63176;52.678;13.250;2022-08-30T00:15:56;14.10;99.90
7290;DHT22;63176;52.678;13.250;2022-08-30T00:18:23;14.20;99.90
7290;DHT22;63176;52.678;13.250;2022-08-30T00:20:49;14.10;99.90
7290;DHT22;63176;52.678;13.250;2022-08-30T00:23:16;14.10;99.90
7290;DHT22;63176;52.678;13.250;2022-08-30T00:25:42;14.10;99.90
7290;DHT22;63176;52.678;13.250;2022-08-30T00:28:09;14.10;99.90
7290;DHT22;63176;52.678;13.250;2022-08-30T00:30:36;14.00;99.90
7290;DHT22;63176;52.678;13.250;2022-08-30T00:33:02;14.00;99.90
7290;DHT22;63176;52.678;13.250;2022-08-30T00:35:28;14.00;99.90
7290;DHT22;63176;52.678;13.250;2022-08-30T00:37:54;14.10;99.90
7290;DHT22;63176;52.678;13.250;2022-08-30T00:40:20;14.00;99.90
7290;DHT22;63176;52.678;13.250;2022-08-30T00:42:46;14.00;99.90
7290;DHT22;63176;52.678;13.250;2022-08-30T00:45:19;14.00;99.90
7290;DHT22;63176;52.678;13.250;2022-08-30T00:47:46;14.00;99.90
7290;DHT22;63176;52.678;13.250;2022-08-30T00:50:14;13.90;99.90
7290;DHT22;63176;52.678;13.250;2022-08-30T00:52:44;14.00;99.90
7290;DHT22;63176;52.678;13.250;2022-08-30T00:55:11;13.90;99.90
7290;DHT22;63176;52.678;13.250;2022-08-30T00:57:40;13.90;99.90
7290;DHT22;63176;52.678;13.250;2022-08-30T01:00:06;13.90;99.90
7290;DHT22;63176;52.678;13.250;2022-08-30T01:02:33;14.00;99.90
7290;DHT22;63176;52.678;13.250;2022-08-30T01:05:00;14.00;99.90
7290;DHT22;63176;52.678;13.250;2022-08-30T01:07:27;14.00;99.90
7290;DHT22;63176;52.678;13.250;2022-08-30T01:09:53;13.90;99.90
7290;DHT22;63176;52.678;13.250;2022-08-30T01:12:19;13.90;99.90
7290;DHT22;63176;52.678;13.250;2022-08-30T01:14:45;13.90;99.90
7290;DHT22;63176;52.678;13.250;2022-08-30T01:17:12;13.90;99.90
7290;DHT22;63176;52.678;13.250;2022-08-30T01:19:55;13.90;99.90
7290;DHT22;63176;52.678;13.250;2022-08-30T01:25:28;13.90;99.90
7290;DHT22;63176;52.678;13.250;2022-08-30T01:28:05;13.80;99.90
7290;DHT22;63176;52.678;13.250;2022-08-30T01:30:31;13.80;99.90
7290;DHT22;63176;52.678;13.250;2022-08-30T01:33:02;13.80;99.90
7290;DHT22;63176;52.678;13.250;2022-08-30T01:35:33;13.80;99.90
7290;DHT22;63176;52.678;13.250;2022-08-30T01:38:00;13.80;99.90
7290;DHT22;63176;52.678;13.250;2022-08-30T01:40:26;13.80;99.90
7290;DHT22;63176;52.678;13.250;2022-08-30T01:42:52;13.80;99.90
7290;DHT22;63176;52.678;13.250;2022-08-30T01:45:17;13.80;99.90
7290;DHT22;63176;52.678;13.250;2022-08-30T01:47:43;13.80;99.90
7290;DHT22;63176;52.678;13.250;2022-08-30T01:50:10;13.80;99.90
7290;DHT22;63176;52.678;13.250;2022-08-30T01:52:36;13.70;99.90
7290;DHT22;63176;52.678;13.250;2022-08-30T01:55:03;13.70;99.90
7290;DHT22;63176;52.678;13.250;2022-08-30T01:57:29;13.70;99.90
7290;DHT22;63176;52.678;13.250;2022-08-30T01:59:54;13.70;99.90
7290;DHT22;63176;52.678;13.250;2022-08-30T02:02:23;13.60;99.90
7290;DHT22;63176;52.678;13.250;2022-08-30T02:04:51;13.70;99.90
7290;DHT22;63176;52.678;13.250;2022-08-30T02:07:18;13.60;99.90
7290;DHT22;63176;52.678;13.250;2022-08-30T02:09:44;13.70;99.90
7290;DHT22;63176;52.678;13.250;2022-08-30T02:12:09;13.60;99.90
7290;DHT22;63176;52.678;13.250;2022-08-30T02:14:36;13.60;99.90
7290;DHT22;63176;52.678;13.250;2022-08-30T02:17:04;13.60;99.90
7290;DHT22;63176;52.678;13.250;2022-08-30T02:19:30;13.60;99.90
7290;DHT22;63176;52.678;13.250;2022-08-30T02:21:56;13.60;99.90
7290;DHT22;63176;52.678;13.250;2022-08-30T02:24:21;13.60;99.90
7290;DHT22;63176;52.678;13.250;2022-08-30T02:26:47;13.60;99.90
7290;DHT22;63176;52.678;13.250;2022-08-30T02:29:13;13.60;99.90
7290;DHT22;63176;52.678;13.250;2022-08-30T02:31:39;13.60;99.90
7290;DHT22;63176;52.678;13.250;2022-08-30T02:34:05;13.60;99.90
7290;DHT22;63176;52.678;13.250;2022-08-30T02:36:31;13.70;99.90
7290;DHT22;63176;52.678;13.250;2022-08-30T02:38:56;13.70;99.90
7290;DHT22;63176;52.678;13.250;2022-08-30T02:41:22;13.70;99.90
7290;DHT22;63176;52.678;13.250;2022-08-30T02:43:49;13.70;99.90
7290;DHT22;63176;52.678;13.250;2022-08-30T02:46:16;13.70;99.90
7290;DHT22;63176;52.678;13.250;2022-08-30T02:48:43;13.70;99.90
7290;DHT22;63176;52.678;13.250;2022-08-30T02:51:11;13.70;99.90
7290;DHT22;63176;52.678;13.250;2022-08-30T02:53:39;13.70;99.90
7290;DHT22;63176;52.678;13.250;2022-08-30T02:56:06;13.70;99.90
7290;DHT22;63176;52.678;13.250;2022-08-30T02:58:31;13.70;99.90
7290;DHT22;63176;52.678;13.250;2022-08-30T03:00:57;13.80;99.90
7290;DHT22;63176;52.678;13.250;2022-08-30T03:03:23;13.80;99.90
7290;DHT22;63176;52.678;13.250;2022-08-30T03:05:49;13.80;99.90
7290;DHT22;63176;52.678;13.250;2022-08-30T03:08:15;13.80;99.90
7290;DHT22;63176;52.678;13.250;2022-08-30T03:10:41;13.80;99.90
7290;DHT22;63176;52.678;13.250;2022-08-30T03:13:06;13.80;99.90
7290;DHT22;63176;52.678;13.250;2022-08-30T03:15:34;13.80;99.90
7290;DHT22;63176;52.678;13.250;2022-08-30T03:18:00;14.00;99.90
7290;DHT22;63176;52.678;13.250;2022-08-30T03:20:26;13.80;99.90
7290;DHT22;63176;52.678;13.250;2022-08-30T03:22:52;13.80;99.90
7290;DHT22;63176;52.678;13.250;2022-08-30T03:25:18;13.80;99.90
7290;DHT22;63176;52.678;13.250;2022-08-30T03:27:48;13.80;99.90
7290;DHT22;63176;52.678;13.250;2022-08-30T03:30:16;13.80;99.90
7290;DHT22;63176;52.678;13.250;2022-08-30T03:32:42;13.90;99.90
7290;DHT22;63176;52.678;13.250;2022-08-30T03:35:08;13.90;99.90
7290;DHT22;63176;52.678;13.250;2022-08-30T03:37:34;13.90;99.90
7290;DHT22;63176;52.678;13.250;2022-08-30T03:40:00;14.00;99.90
7290;DHT22;63176;52.678;13.250;2022-08-30T03:42:27;14.00;99.90
7290;DHT22;63176;52.678;13.250;2022-08-30T03:44:52;14.10;99.90
7290;DHT22;63176;52.678;13.250;2022-08-30T03:47:18;14.10;99.90
7290;DHT22;63176;52.678;13.250;2022-08-30T03:49:45;14.10;99.90
7290;DHT22;63176;52.678;13.250;2022-08-30T03:52:10;14.10;99.90
7290;DHT22;63176;52.678;13.250;2022-08-30T03:54:36;14.20;99.90
7290;DHT22;63176;52.678;13.250;2022-08-30T03:57:03;14.20;99.90
7290;DHT22;63176;52.678;13.250;2022-08-30T03:59:29;14.20;99.90
7290;DHT22;63176;52.678;13.250;2022-08-30T04:01:54;14.20;99.90
7290;DHT22;63176;52.678;13.250;2022-08-30T04:04:20;14.20;99.90
7290;DHT22;63176;52.678;13.250;2022-08-30T04:06:46;14.20;99.90
7290;DHT22;63176;52.678;13.250;2022-08-30T04:09:11;14.30;99.90
7290;DHT22;63176;52.678;13.250;2022-08-30T04:11:37;14.30;99.90
7290;DHT22;63176;52.678;13.250;2022-08-30T04:14:03;14.30;99.90
7290;DHT22;63176;52.678;13.250;2022-08-30T04:16:28;14.30;99.90
7290;DHT22;63176;52.678;13.250;2022-08-30T04:18:54;14.30;99.90
7290;DHT22;63176;52.678;13.250;2022-08-30T04:21:20;14.30;99.90
7290;DHT22;63176;52.678;13.250;2022-08-30T04:23:46;14.30;99.90
7290;DHT22;63176;52.678;13.250;2022-08-30T04:26:12;14.30;99.90
7290;DHT22;63176;52.678;13.250;2022-08-30T04:28:37;14.40;99.90
7290;DHT22;63176;52.678;13.250;2022-08-30T04:31:11;14.50;99.90
7290;DHT22;63176;52.678;13.250;2022-08-30T04:33:37;14.50;99.90
7290;DHT22;63176;52.678;13.250;2022-08-30T04:36:06;14.50;99.90
7290;DHT22;63176;52.678;13.250;2022-08-30T04:38:34;14.50;99.90
7290;DHT22;63176;52.678;13.250;2022-08-30T04:41:00;14.50;99.90
7290;DHT22;63176;52.678;13.250;2022-08-30T04:43:26;14.50;99.90
7290;DHT22;63176;52.678;13.250;2022-08-30T04:45:53;14.60;99.90
7290;DHT22;63176;52.678;13.250;2022-08-30T04:48:19;14.60;99.90
7290;DHT22;63176;52.678;13.250;2022-08-30T04:50:46;14.60;99.90
7290;DHT22;63176;52.678;13.250;2022-08-30T04:53:13;14.60;99.90
7290;DHT22;63176;52.678;13.250;2022-08-30T04:55:40;14.70;99.90
7290;DHT22;63176;52.678;13.250;2022-08-30T04:58:06;14.70;99.90
7290;DHT22;63176;52.678;13.250;2022-08-30T05:00:32;14.80;99.90
7290;DHT22;63176;52.678;13.250;2022-08-30T05:02:58;14.80;99.90
7290;DHT22;63176;52.678;13.250;2022-08-30T05:05:24;14.80;99.90
7290;DHT22;63176;52.678;13.250;2022-08-30T05:08:11;14.80;99.90
7290;DHT22;63176;52.678;13.250;2022-08-30T05:10:39;15.00;99.90
7290;DHT22;63176;52.678;13.250;2022-08-30T05:13:05;15.00;99.90
7290;DHT22;63176;52.678;13.250;2022-08-30T05:15:31;15.00;99.90
7290;DHT22;63176;52.678;13.250;2022-08-30T05:17:56;15.10;99.90
7290;DHT22;63176;52.678;13.250;2022-08-30T05:20:22;15.10;99.90
7290;DHT22;63176;52.678;13.250;2022-08-30T05:22:48;15.10;99.90
7290;DHT22;63176;52.678;13.250;2022-08-30T05:25:19;15.20;99.90
7290;DHT22;63176;52.678;13.250;2022-08-30T05:27:45;15.20;99.90
7290;DHT22;63176;52.678;13.250;2022-08-30T05:30:13;15.20;99.90
7290;DHT22;63176;52.678;13.250;2022-08-30T05:32:39;15.30;99.90
7290;DHT22;63176;52.678;13.250;2022-08-30T05:35:06;15.30;99.90
7290;DHT22;63176;52.678;13.250;2022-08-30T05:37:32;15.40;99.90
7290;DHT22;63176;52.678;13.250;2022-08-30T05:39:58;15.40;99.90
7290;DHT22;63176;52.678;13.250;2022-08-30T05:42:24;15.50;99.90
7290;DHT22;63176;52.678;13.250;2022-08-30T05:44:52;15.50;99.90
7290;DHT22;63176;52.678;13.250;2022-08-30T05:47:19;15.60;99.90
7290;DHT22;63176;52.678;13.250;2022-08-30T05:49:44;15.60;99.90
7290;DHT22;63176;52.678;13.250;2022-08-30T05:52:11;15.70;99.90
7290;DHT22;63176;52.678;13.250;2022-08-30T05:54:38;15.70;99.90
7290;DHT22;63176;52.678;13.250;2022-08-30T05:57:04;15.70;99.90
7290;DHT22;63176;52.678;13.250;2022-08-30T05:59:30;15.80;99.90
7290;DHT22;63176;52.678;13.250;2022-08-30T06:01:56;15.80;99.90
7290;DHT22;63176;52.678;13.250;2022-08-30T06:04:23;15.80;99.90
7290;DHT22;63176;52.678;13.250;2022-08-30T06:06:48;15.90;99.90
7290;DHT22;63176;52.678;13.250;2022-08-30T06:09:14;15.90;99.90
7290;DHT22;63176;52.678;13.250;2022-08-30T06:11:41;16.00;99.90
7290;DHT22;63176;52.678;13.250;2022-08-30T06:14:07;16.10;99.90
7290;DHT22;63176;52.678;13.250;2022-08-30T06:16:33;16.10;99.90
7290;DHT22;63176;52.678;13.250;2022-08-30T06:19:00;16.20;99.90
7290;DHT22;63176;52.678;13.250;2022-08-30T06:21:31;16.20;99.90
7290;DHT22;63176;52.678;13.250;2022-08-30T06:23:57;16.20;99.90
7290;DHT22;63176;52.678;13.250;2022-08-30T06:26:24;16.20;99.90
7290;DHT22;63176;52.678;13.250;2022-08-30T06:28:50;16.30;99.90
7290;DHT22;63176;52.678;13.250;2022-08-30T06:31:17;16.30;99.90
7290;DHT22;63176;52.678;13.250;2022-08-30T06:33:43;16.40;99.90
7290;DHT22;63176;52.678;13.250;2022-08-30T06:36:13;16.40;99.90
7290;DHT22;63176;52.678;13.250;2022-08-30T06:38:40;16.40;99.90
7290;DHT22;63176;52.678;13.250;2022-08-30T06:41:14;16.40;99.90
7290;DHT22;63176;52.678;13.250;2022-08-30T06:43:40;16.40;99.90
7290;DHT22;63176;52.678;13.250;2022-08-30T06:46:08;16.40;99.90
7290;DHT22;63176;52.678;13.250;2022-08-30T06:48:34;16.40;99.90
7290;DHT22;63176;52.678;13.250;2022-08-30T06:51:00;16.40;99.90
7290;DHT22;63176;52.678;13.250;2022-08-30T06:53:29;16.50;99.90
7290;DHT22;63176;52.678;13.250;2022-08-30T06:58:22;16.50;99.90
7290;DHT22;63176;52.678;13.250;2022-08-30T07:00:48;16.60;99.90
7290;DHT22;63176;52.678;13.250;2022-08-30T07:03:13;16.60;99.90
7290;DHT22;63176;52.678;13.250;2022-08-30T07:05:39;16.60;99.90
7290;DHT22;63176;52.678;13.250;2022-08-30T07:08:05;16.70;99.90
7290;DHT22;63176;52.678;13.250;2022-08-30T07:10:31;16.70;99.90
7290;DHT22;63176;52.678;13.250;2022-08-30T07:12:56;16.70;99.90
7290;DHT22;63176;52.678;13.250;2022-08-30T07:15:22;16.80;99.90
7290;DHT22;63176;52.678;13.250;2022-08-30T07:17:48;16.80;99.90
7290;DHT22;63176;52.678;13.250;2022-08-30T07:20:33;16.90;99.90
7290;DHT22;63176;52.678;13.250;2022-08-30T07:22:58;16.90;99.90
7290;DHT22;63176;52.678;13.250;2022-08-30T07:25:24;16.90;99.90
7290;DHT22;63176;52.678;13.250;2022-08-30T07:27:50;16.90;99.90
7290;DHT22;63176;52.678;13.250;2022-08-30T07:30:17;17.00;99.90
7290;DHT22;63176;52.678;13.250;2022-08-30T07:32:43;17.00;99.90
7290;DHT22;63176;52.678;13.250;2022-08-30T07:35:09;17.00;99.90
7290;DHT22;63176;52.678;13.250;2022-08-30T07:37:35;17.00;99.90
7290;DHT22;63176;52.678;13.250;2022-08-30T07:40:02;17.10;99.90
7290;DHT22;63176;52.678;13.250;2022-08-30T07:42:28;17.10;99.90
7290;DHT22;63176;52.678;13.250;2022-08-30T07:44:53;17.10;99.90
7290;DHT22;63176;52.678;13.250;2022-08-30T07:47:19;17.00;99.90
7290;DHT22;63176;52.678;13.250;2022-08-30T07:49:45;17.00;99.90
7290;DHT22;63176;52.678;13.250;2022-08-30T07:52:10;17.00;99.90
7290;DHT22;63176;52.678;13.250;2022-08-30T07:54:36;17.00;99.90
7290;DHT22;63176;52.678;13.250;2022-08-30T07:57:02;16.90;99.90
7290;DHT22;63176;52.678;13.250;2022-08-30T07:59:27;16.90;99.90
7290;DHT22;63176;52.678;13.250;2022-08-30T08:01:53;16.80;99.90
7290;DHT22;63176;52.678;13.250;2022-08-30T08:04:19;16.90;99.90
7290;DHT22;63176;52.678;13.250;2022-08-30T08:06:44;16.80;99.90
7290;DHT22;63176;52.678;13.250;2022-08-30T08:09:10;16.80;99.90
7290;DHT22;63176;52.678;13.250;2022-08-30T08:11:36;16.80;99.90
7290;DHT22;63176;52.678;13.250;2022-08-30T08:14:02;16.80;99.90
7290;DHT22;63176;52.678;13.250;2022-08-30T08:16:31;16.80;99.90
7290;DHT22;63176;52.678;13.250;2022-08-30T08:18:57;16.80;99.90
7290;DHT22;63176;52.678;13.250;2022-08-30T08:21:25;16.90;99.90
7290;DHT22;63176;52.678;13.250;2022-08-30T08:23:51;16.90;99.90
7290;DHT22;63176;52.678;13.250;2022-08-30T08:26:18;16.90;99.90
7290;DHT22;63176;52.678;13.250;2022-08-30T08:28:44;16.90;99.90
7290;DHT22;63176;52.678;13.250;2022-08-30T08:31:16;16.90;99.90
7290;DHT22;63176;52.678;13.250;2022-08-30T08:33:42;16.90;99.90
7290;DHT22;63176;52.678;13.250;2022-08-30T08:36:08;17.00;99.90
7290;DHT22;63176;52.678;13.250;2022-08-30T08:38:34;16.90;99.90
7290;DHT22;63176;52.678;13.250;2022-08-30T08:43:37;17.00;99.90
7290;DHT22;63176;52.678;13.250;2022-08-30T08:49:09;17.00;99.90
7290;DHT22;63176;52.678;13.250;2022-08-30T08:51:37;17.10;99.90
7290;DHT22;63176;52.678;13.250;2022-08-30T08:57:05;17.10;99.90
7290;DHT22;63176;52.678;13.250;2022-08-30T08:59:31;17.10;99.90
7290;DHT22;63176;52.678;13.250;2022-08-30T09:01:59;17.20;99.90
7290;DHT22;63176;52.678;13.250;2022-08-30T09:04:32;17.20;99.90
7290;DHT22;63176;52.678;13.250;2022-08-30T09:07:10;17.30;99.90
7290;DHT22;63176;52.678;13.250;2022-08-30T09:09:39;17.30;99.90
7290;DHT22;63176;52.678;13.250;2022-08-30T09:12:07;17.40;99.90
7290;DHT22;63176;52.678;13.250;2022-08-30T09:14:36;17.50;99.90
7290;DHT22;63176;52.678;13.250;2022-08-30T09:22:20;17.60;99.90
7290;DHT22;63176;52.678;13.250;2022-08-30T09:24:49;17.70;99.90
7290;DHT22;63176;52.678;13.250;2022-08-30T09:30:24;17.80;99.90
7290;DHT22;63176;52.678;13.250;2022-08-30T09:32:58;17.80;99.90
7290;DHT22;63176;52.678;13.250;2022-08-30T09:35:45;17.80;99.90
7290;DHT22;63176;52.678;13.250;2022-08-30T09:38:16;17.90;99.90
7290;DHT22;63176;52.678;13.250;2022-08-30T09:40:43;17.90;99.90
7290;DHT22;63176;52.678;13.250;2022-08-30T09:56:26;18.20;99.90
7290;DHT22;63176;52.678;13.250;2022-08-30T10:01:52;18.30;99.90
7290;DHT22;63176;52.678;13.250;2022-08-30T10:09:51;18.50;99.90
7290;DHT22;63176;52.678;13.250;2022-08-30T10:17:51;18.70;99.90
7290;DHT22;63176;52.678;13.250;2022-08-30T10:20:30;18.80;99.90
7290;DHT22;63176;52.678;13.250;2022-08-30T10:25:34;18.90;99.90
7290;DHT22;63176;52.678;13.250;2022-08-30T10:28:26;19.00;99.90
7290;DHT22;63176;52.678;13.250;2022-08-30T10:31:02;19.10;99.90
7290;DHT22;63176;52.678;13.250;2022-08-30T10:33:36;19.10;99.90
7290;DHT22;63176;52.678;13.250;2022-08-30T10:36:07;19.20;99.90
7290;DHT22;63176;52.678;13.250;2022-08-30T10:38:54;19.30;99.90
7290;DHT22;63176;52.678;13.250;2022-08-30T10:49:21;19.50;99.90
7290;DHT22;63176;52.678;13.250;2022-08-30T10:54:39;19.60;99.90
7290;DHT22;63176;52.678;13.250;2022-08-30T10:57:09;19.70;99.90
7290;DHT22;63176;52.678;13.250;2022-08-30T10:59:37;19.80;99.90
7290;DHT22;63176;52.678;13.250;2022-08-30T11:05:08;20.10;99.90
7290;DHT22;63176;52.678;13.250;2022-08-30T11:13:21;20.90;99.90
7290;DHT22;63176;52.678;13.250;2022-08-30T11:16:07;21.20;99.90
7290;DHT22;63176;52.678;13.250;2022-08-30T11:18:54;21.40;99.90
7290;DHT22;63176;52.678;13.250;2022-08-30T11:21:34;21.50;99.90
7290;DHT22;63176;52.678;13.250;2022-08-30T11:29:26;21.60;99.90
7290;DHT22;63176;52.678;13.250;2022-08-30T11:31:53;21.60;99.90
7290;DHT22;63176;52.678;13.250;2022-08-30T11:37:37;21.60;99.90
7290;DHT22;63176;52.678;13.250;2022-08-30T11:42:52;21.50;99.90
7290;DHT22;63176;52.678;13.250;2022-08-30T11:58:45;21.70;99.90
7290;DHT22;63176;52.678;13.250;2022-08-30T12:04:08;21.90;99.90
7290;DHT22;63176;52.678;13.250;2022-08-30T12:06:57;21.90;99.90
7290;DHT22;63176;52.678;13.250;2022-08-30T12:22:50;21.50;99.90
7290;DHT22;63176;52.678;13.250;2022-08-30T12:25:28;21.50;99.90
7290;DHT22;63176;52.678;13.250;2022-08-30T12:28:17;21.40;99.90
7290;DHT22;63176;52.678;13.250;2022-08-30T12:30:45;21.40;99.90
7290;DHT22;63176;52.678;13.250;2022-08-30T12:33:13;21.50;99.90
7290;DHT22;63176;52.678;13.250;2022-08-30T12:35:41;21.40;99.90
7290;DHT22;63176;52.678;13.250;2022-08-30T12:38:13;21.40;99.90
7290;DHT22;63176;52.678;13.250;2022-08-30T12:40:58;21.50;99.90
7290;DHT22;63176;52.678;13.250;2022-08-30T12:43:36;21.50;99.90
7290;DHT22;63176;52.678;13.250;2022-08-30T12:46:06;21.50;99.90
7290;DHT22;63176;52.678;13.250;2022-08-30T12:48:38;21.50;99.90
7290;DHT22;63176;52.678;13.250;2022-08-30T12:51:05;21.50;99.90
7290;DHT22;63176;52.678;13.250;2022-08-30T12:53:40;21.70;99.90
7290;DHT22;63176;52.678;13.250;2022-08-30T12:56:12;21.90;99.90
7290;DHT22;63176;52.678;13.250;2022-08-30T12:58:50;22.00;99.90
7290;DHT22;63176;52.678;13.250;2022-08-30T13:01:34;22.10;99.90
7290;DHT22;63176;52.678;13.250;2022-08-30T13:04:11;22.10;99.90
7290;DHT22;63176;52.678;13.250;2022-08-30T13:06:55;22.10;99.90
7290;DHT22;63176;52.678;13.250;2022-08-30T13:09:36;21.90;99.90
7290;DHT22;63176;52.678;13.250;2022-08-30T13:12:08;21.80;99.90
7290;DHT22;63176;52.678;13.250;2022-08-30T13:14:44;21.70;99.90
7290;DHT22;63176;52.678;13.250;2022-08-30T13:17:20;21.60;99.90
7290;DHT22;63176;52.678;13.250;2022-08-30T13:22:38;21.40;99.90
7290;DHT22;63176;52.678;13.250;2022-08-30T13:25:05;21.30;99.90
7290;DHT22;63176;52.678;13.250;2022-08-30T13:27:33;21.30;99.90
7290;DHT22;63176;52.678;13.250;2022-08-30T13:30:10;21.20;99.90
7290;DHT22;63176;52.678;13.250;2022-08-30T13:32:37;21.20;99.90
7290;DHT22;63176;52.678;13.250;2022-08-30T13:35:04;21.20;99.90
7290;DHT22;63176;52.678;13.250;2022-08-30T13:37:30;21.20;99.90
7290;DHT22;63176;52.678;13.250;2022-08-30T13:39:56;21.30;99.90
7290;DHT22;63176;52.678;13.250;2022-08-30T13:42:22;21.40;99.90
7290;DHT22;63176;52.678;13.250;2022-08-30T13:44:47;21.40;99.90
7290;DHT22;63176;52.678;13.250;2022-08-30T13:47:13;21.40;99.90
7290;DHT22;63176;52.678;13.250;2022-08-30T13:49:39;21.50;99.90
7290;DHT22;63176;52.678;13.250;2022-08-30T13:52:09;21.50;99.90
7290;DHT22;63176;52.678;13.250;2022-08-30T13:54:35;21.40;99.90
7290;DHT22;63176;52.678;13.250;2022-08-30T13:57:01;21.50;99.90
7290;DHT22;63176;52.678;13.250;2022-08-30T13:59:27;21.40;99.90
7290;DHT22;63176;52.678;13.250;2022-08-30T14:01:54;21.40;99.90
7290;DHT22;63176;52.678;13.250;2022-08-30T14:04:20;21.40;99.90
7290;DHT22;63176;52.678;13.250;2022-08-30T14:06:46;21.40;99.90
7290;DHT22;63176;52.678;13.250;2022-08-30T14:09:12;21.50;99.90
7290;DHT22;63176;52.678;13.250;2022-08-30T14:11:39;21.50;99.90
7290;DHT22;63176;52.678;13.250;2022-08-30T14:14:05;21.50;99.90
7290;DHT22;63176;52.678;13.250;2022-08-30T14:16:31;21.70;99.90
7290;DHT22;63176;52.678;13.250;2022-08-30T14:18:58;22.30;99.90
7290;DHT22;63176;52.678;13.250;2022-08-30T14:21:24;23.40;99.90
7290;DHT22;63176;52.678;13.250;2022-08-30T14:23:51;23.90;99.90
7290;DHT22;63176;52.678;13.250;2022-08-30T14:26:21;23.90;99.90
7290;DHT22;63176;52.678;13.250;2022-08-30T14:28:48;23.60;99.90
7290;DHT22;63176;52.678;13.250;2022-08-30T14:31:14;23.40;99.90
7290;DHT22;63176;52.678;13.250;2022-08-30T14:33:41;23.10;99.90
7290;DHT22;63176;52.678;13.250;2022-08-30T14:36:07;22.80;99.90
7290;DHT22;63176;52.678;13.250;2022-08-30T14:38:33;22.60;99.90
7290;DHT22;63176;52.678;13.250;2022-08-30T14:40:58;22.50;99.90
7290;DHT22;63176;52.678;13.250;2022-08-30T14:43:24;22.40;99.90
7290;DHT22;63176;52.678;13.250;2022-08-30T14:45:49;22.30;99.90
7290;DHT22;63176;52.678;13.250;2022-08-30T14:48:15;22.30;99.90
7290;DHT22;63176;52.678;13.250;2022-08-30T14:50:41;22.20;99.90
7290;DHT22;63176;52.678;13.250;2022-08-30T14:53:06;22.10;99.90
7290;DHT22;63176;52.678;13.250;2022-08-30T14:55:33;22.10;99.90
7290;DHT22;63176;52.678;13.250;2022-08-30T14:57:59;22.00;99.90
7290;DHT22;63176;52.678;13.250;2022-08-30T15:00:25;22.00;99.90
7290;DHT22;63176;52.678;13.250;2022-08-30T15:02:51;21.90;99.90
7290;DHT22;63176;52.678;13.250;2022-08-30T15:05:17;21.80;99.90
7290;DHT22;63176;52.678;13.250;2022-08-30T15:07:43;21.80;99.90
7290;DHT22;63176;52.678;13.250;2022-08-30T15:10:09;21.70;99.90
7290;DHT22;63176;52.678;13.250;2022-08-30T15:12:36;21.70;99.90
7290;DHT22;63176;52.678;13.250;2022-08-30T15:15:02;21.70;99.90
7290;DHT22;63176;52.678;13.250;2022-08-30T15:17:28;21.60;99.90
7290;DHT22;63176;52.678;13.250;2022-08-30T15:19:53;21.50;99.90
7290;DHT22;63176;52.678;13.250;2022-08-30T15:22:19;21.50;99.90
7290;DHT22;63176;52.678;13.250;2022-08-30T15:24:45;21.50;99.90
7290;DHT22;63176;52.678;13.250;2022-08-30T15:27:10;21.50;99.90
7290;DHT22;63176;52.678;13.250;2022-08-30T15:29:36;21.40;99.90
7290;DHT22;63176;52.678;13.250;2022-08-30T15:32:03;21.40;99.90
7290;DHT22;63176;52.678;13.250;2022-08-30T15:34:29;21.40;99.90
7290;DHT22;63176;52.678;13.250;2022-08-30T15:36:55;21.40;99.90
7290;DHT22;63176;52.678;13.250;2022-08-30T15:39:21;21.30;99.90
7290;DHT22;63176;52.678;13.250;2022-08-30T15:41:47;21.30;99.90
7290;DHT22;63176;52.678;13.250;2022-08-30T15:44:14;21.30;99.90
7290;DHT22;63176;52.678;13.250;2022-08-30T15:46:42;21.30;99.90
7290;DHT22;63176;52.678;13.250;2022-08-30T15:49:14;21.20;99.90
7290;DHT22;63176;52.678;13.250;2022-08-30T15:51:40;21.20;99.90
7290;DHT22;63176;52.678;13.250;2022-08-30T15:54:08;21.20;99.90
7290;DHT22;63176;52.678;13.250;2022-08-30T15:56:34;21.10;99.90
7290;DHT22;63176;52.678;13.250;2022-08-30T15:59:00;21.00;99.90
7290;DHT22;63176;52.678;13.250;2022-08-30T16:01:25;20.90;99.90
7290;DHT22;63176;52.678;13.250;2022-08-30T16:03:51;20.80;99.90
7290;DHT22;63176;52.678;13.250;2022-08-30T16:06:23;20.70;99.90
7290;DHT22;63176;52.678;13.250;2022-08-30T16:08:49;20.70;99.90
7290;DHT22;63176;52.678;13.250;2022-08-30T16:11:17;20.60;99.90
7290;DHT22;63176;52.678;13.250;2022-08-30T16:13:43;20.60;99.90
7290;DHT22;63176;52.678;13.250;2022-08-30T16:16:11;20.70;99.90
7290;DHT22;63176;52.678;13.250;2022-08-30T16:18:37;20.70;99.90
7290;DHT22;63176;52.678;13.250;2022-08-30T16:21:16;20.60;99.90
7290;DHT22;63176;52.678;13.250;2022-08-30T16:23:43;20.50;99.90
7290;DHT22;63176;52.678;13.250;2022-08-30T16:26:10;20.50;99.90
7290;DHT22;63176;52.678;13.250;2022-08-30T16:28:36;20.40;99.90
7290;DHT22;63176;52.678;13.250;2022-08-30T16:31:05;20.40;99.90
7290;DHT22;63176;52.678;13.250;2022-08-30T16:33:31;20.30;99.90
7290;DHT22;63176;52.678;13.250;2022-08-30T16:35:57;20.20;99.90
7290;DHT22;63176;52.678;13.250;2022-08-30T16:38:24;20.10;99.90
7290;DHT22;63176;52.678;13.250;2022-08-30T16:40:50;20.00;99.90
7290;DHT22;63176;52.678;13.250;2022-08-30T16:43:16;20.00;99.90
7290;DHT22;63176;52.678;13.250;2022-08-30T16:45:42;19.90;99.90
7290;DHT22;63176;52.678;13.250;2022-08-30T16:48:09;19.90;99.90
7290;DHT22;63176;52.678;13.250;2022-08-30T16:50:40;19.90;99.90
7290;DHT22;63176;52.678;13.250;2022-08-30T16:53:06;19.90;99.90
7290;DHT22;63176;52.678;13.250;2022-08-30T16:55:32;19.90;99.90
7290;DHT22;63176;52.678;13.250;2022-08-30T16:58:05;19.80;99.90
7290;DHT22;63176;52.678;13.250;2022-08-30T17:00:32;19.80;99.90
7290;DHT22;63176;52.678;13.250;2022-08-30T17:02:58;19.80;99.90
7290;DHT22;63176;52.678;13.250;2022-08-30T17:05:24;19.80;99.90
7290;DHT22;63176;52.678;13.250;2022-08-30T17:07:50;19.80;99.90
7290;DHT22;63176;52.678;13.250;2022-08-30T17:10:16;19.70;99.90
7290;DHT22;63176;52.678;13.250;2022-08-30T17:12:42;19.70;99.90
7290;DHT22;63176;52.678;13.250;2022-08-30T17:15:09;19.70;99.90
7290;DHT22;63176;52.678;13.250;2022-08-30T17:17:35;19.70;99.90
7290;DHT22;63176;52.678;13.250;2022-08-30T17:20:03;19.70;99.90
7290;DHT22;63176;52.678;13.250;2022-08-30T17:22:28;19.60;99.90
7290;DHT22;63176;52.678;13.250;2022-08-30T17:24:54;19.60;99.90
7290;DHT22;63176;52.678;13.250;2022-08-30T17:27:20;19.50;99.90
7290;DHT22;63176;52.678;13.250;2022-08-30T17:29:45;19.50;99.90